Time;durP1;ratioP1;P1;durP2;ratioP2;P2;SDS_P1;SDS_P2;PMS_P1;PMS_P2;Temp;Humidity;BMP_temperature;BMP_pressure;BME280_temperature;BME280_humidity;BME280_pressure;Samples;Min_cycle;Max_cycle;Signal;HPM_P1;HPM_P2
2022/11/24 00:01:24;;;;;;;29.03;20.17;;;3.30;99.90;;;;;;4968543;28;20211;-72
2022/11/24 00:03:55;;;;;;;30.40;20.33;;;3.30;99.90;;;;;;4968500;28;20658;-73
2022/11/24 00:06:22;;;;;;;27.47;19.50;;;3.30;99.90;;;;;;4968154;28;20251;-73
2022/11/24 00:08:49;;;;;;;29.70;20.13;;;3.30;99.90;;;;;;4968910;28;20338;-72
2022/11/24 00:11:18;;;;;;;27.73;20.20;;;3.30;99.90;;;;;;4968455;28;20222;-73
2022/11/24 00:13:46;;;;;;;32.30;21.67;;;3.30;99.90;;;;;;4968682;28;20313;-72
2022/11/24 00:16:15;;;;;;;31.30;20.23;;;3.30;99.90;;;;;;4968243;28;20297;-72
2022/11/24 00:18:43;;;;;;;28.90;19.90;;;3.30;99.90;;;;;;4968787;28;20308;-72
2022/11/24 00:21:12;;;;;;;31.40;20.43;;;3.30;99.90;;;;;;4968614;28;20210;-71
2022/11/24 00:23:39;;;;;;;29.70;20.07;;;3.30;99.90;;;;;;4968340;28;20666;-72
2022/11/24 00:26:08;;;;;;;31.47;21.00;;;3.30;99.90;;;;;;4968591;28;20668;-72
2022/11/24 00:28:35;;;;;;;32.43;21.23;;;3.30;99.90;;;;;;4968304;28;20290;-73
2022/11/24 00:31:04;;;;;;;30.93;20.63;;;3.30;99.90;;;;;;4967678;28;20627;-72
2022/11/24 00:33:31;;;;;;;33.90;21.20;;;3.30;99.90;;;;;;4968573;28;20305;-72
2022/11/24 00:35:59;;;;;;;30.40;20.50;;;3.30;99.90;;;;;;4968277;28;20293;-72
2022/11/24 00:38:28;;;;;;;33.63;21.17;;;3.20;99.90;;;;;;4968207;28;20300;-72
2022/11/24 00:40:54;;;;;;;29.63;21.03;;;3.20;99.90;;;;;;4968215;28;20294;-72
2022/11/24 00:43:21;;;;;;;31.03;21.63;;;3.20;99.90;;;;;;4968531;28;20237;-73
2022/11/24 00:45:48;;;;;;;34.63;22.03;;;3.20;99.90;;;;;;4967894;28;20234;-72
2022/11/24 00:48:15;;;;;;;33.70;21.77;;;3.20;99.90;;;;;;4968161;28;20304;-72
2022/11/24 00:50:42;;;;;;;34.70;21.67;;;3.20;99.90;;;;;;4968139;28;20685;-72
2022/11/24 00:53:10;;;;;;;32.87;21.67;;;3.20;99.90;;;;;;4968294;28;20301;-72
2022/11/24 00:55:38;;;;;;;30.30;21.10;;;3.20;99.90;;;;;;4967911;28;20303;-72
2022/11/24 00:58:05;;;;;;;32.43;21.30;;;3.20;99.90;;;;;;4969605;28;20868;-72
2022/11/24 01:00:32;;;;;;;34.37;21.70;;;3.20;99.90;;;;;;4971402;28;20246;-72
2022/11/24 01:02:59;;;;;;;31.07;21.37;;;3.20;99.90;;;;;;4971416;28;20246;-73
2022/11/24 01:05:25;;;;;;;33.53;20.77;;;3.20;99.90;;;;;;4971336;28;20275;-71
2022/11/24 01:07:52;;;;;;;33.30;21.33;;;3.20;99.90;;;;;;4965958;28;20215;-71
2022/11/24 01:10:19;;;;;;;32.93;21.60;;;3.20;99.90;;;;;;4952162;28;20326;-72
2022/11/24 01:12:49;;;;;;;29.40;20.93;;;3.20;99.90;;;;;;4952561;28;20235;-72
2022/11/24 01:15:16;;;;;;;30.53;20.53;;;3.20;99.90;;;;;;4951980;28;20211;-72
2022/11/24 01:17:42;;;;;;;31.10;19.30;;;3.20;99.90;;;;;;4967536;28;20325;-72
2022/11/24 01:20:10;;;;;;;33.33;22.00;;;3.20;99.90;;;;;;4971645;28;20241;-73
2022/11/24 01:22:38;;;;;;;28.17;20.40;;;3.20;99.90;;;;;;4971350;28;21030;-72
2022/11/24 01:25:05;;;;;;;32.10;21.10;;;3.20;99.90;;;;;;4971212;28;20669;-73
2022/11/24 01:27:32;;;;;;;31.43;20.63;;;3.20;99.90;;;;;;4971351;28;20313;-73
2022/11/24 01:30:01;;;;;;;33.73;21.63;;;3.20;99.90;;;;;;4970727;28;20325;-73
2022/11/24 01:32:28;;;;;;;31.17;21.03;;;3.20;99.90;;;;;;4971168;28;20289;-72
2022/11/24 01:34:54;;;;;;;32.43;21.50;;;3.20;99.90;;;;;;4971097;28;20298;-72
2022/11/24 01:37:21;;;;;;;35.47;22.33;;;3.10;99.90;;;;;;4970939;28;20294;-75
2022/11/24 01:39:48;;;;;;;33.20;21.63;;;3.20;99.90;;;;;;4971216;28;20662;-74
2022/11/24 01:42:15;;;;;;;30.73;21.13;;;3.20;99.90;;;;;;4971100;28;20297;-74
2022/11/24 01:44:42;;;;;;;32.50;20.63;;;3.20;99.90;;;;;;4971080;28;20294;-73
2022/11/24 01:47:30;;;;;;;28.03;20.93;;;3.20;99.90;;;;;;4971270;28;20298;-73
2022/11/24 01:49:59;;;;;;;28.87;19.97;;;3.20;99.90;;;;;;4971159;28;20330;-74
2022/11/24 01:52:30;;;;;;;28.93;20.33;;;3.20;99.90;;;;;;4970991;28;20269;-73
2022/11/24 01:55:01;;;;;;;28.63;20.07;;;3.20;99.90;;;;;;4970828;28;20206;-74
2022/11/24 01:57:32;;;;;;;29.20;20.57;;;3.20;99.90;;;;;;4970774;28;20638;-74
2022/11/24 02:00:02;;;;;;;27.73;20.33;;;3.20;99.90;;;;;;4970628;28;20285;-73
2022/11/24 02:02:31;;;;;;;27.97;20.43;;;3.10;99.90;;;;;;4970331;28;20658;-72
2022/11/24 02:05:02;;;;;;;29.17;20.63;;;3.10;99.90;;;;;;4970865;28;20214;-72
2022/11/24 02:07:30;;;;;;;31.33;19.57;;;3.20;99.90;;;;;;4970484;28;20231;-71
2022/11/24 02:10:00;;;;;;;31.80;19.67;;;3.10;99.90;;;;;;4970066;28;20718;-73
2022/11/24 02:12:28;;;;;;;29.83;19.80;;;3.10;99.90;;;;;;4970442;28;20215;-72
2022/11/24 02:14:56;;;;;;;25.77;18.67;;;3.20;99.90;;;;;;4969876;28;21010;-71
2022/11/24 02:17:23;;;;;;;27.90;18.83;;;3.20;99.90;;;;;;4970616;28;20309;-72
2022/11/24 02:19:56;;;;;;;25.73;17.33;;;3.10;99.90;;;;;;4970587;28;20238;-72
2022/11/24 02:22:31;;;;;;;27.03;18.83;;;3.10;99.90;;;;;;4970399;28;20306;-73
2022/11/24 02:25:06;;;;;;;25.63;17.67;;;3.10;99.90;;;;;;4970469;28;20202;-73
2022/11/24 02:27:35;;;;;;;25.57;17.13;;;3.00;99.90;;;;;;4970388;28;20207;-73
2022/11/24 02:30:02;;;;;;;23.13;17.57;;;3.00;99.90;;;;;;4970112;28;20661;-72
2022/11/24 02:32:30;;;;;;;22.53;17.73;;;3.00;99.90;;;;;;4970237;28;20647;-73
2022/11/24 02:35:01;;;;;;;24.40;17.77;;;3.00;99.90;;;;;;4970285;28;20246;-73
2022/11/24 02:37:28;;;;;;;24.53;17.70;;;3.00;99.90;;;;;;4969869;28;20665;-73
2022/11/24 02:39:55;;;;;;;24.90;17.90;;;3.00;99.90;;;;;;4970246;28;20647;-72
2022/11/24 02:42:23;;;;;;;24.17;16.93;;;3.00;99.90;;;;;;4969760;28;20357;-73
2022/11/24 02:44:56;;;;;;;25.33;17.23;;;3.00;99.90;;;;;;4969702;28;20214;-72
2022/11/24 02:47:23;;;;;;;22.20;16.77;;;3.00;99.90;;;;;;4970339;28;20298;-73
2022/11/24 02:49:50;;;;;;;27.20;17.30;;;3.00;99.90;;;;;;4969907;28;20325;-73
2022/11/24 02:52:17;;;;;;;25.23;16.97;;;3.00;99.90;;;;;;4969775;28;20211;-73
2022/11/24 02:54:43;;;;;;;23.97;16.13;;;2.90;99.90;;;;;;4969836;28;20207;-72
2022/11/24 02:57:11;;;;;;;22.63;16.63;;;3.00;99.90;;;;;;4970026;28;20290;-73
2022/11/24 02:59:38;;;;;;;27.10;17.93;;;3.00;99.90;;;;;;4969533;28;20298;-74
2022/11/24 03:02:06;;;;;;;23.20;16.53;;;2.90;99.90;;;;;;4969910;28;20212;-72
2022/11/24 03:04:33;;;;;;;22.77;16.20;;;2.90;99.90;;;;;;4969558;28;20206;-73
2022/11/24 03:07:00;;;;;;;23.27;17.03;;;2.90;99.90;;;;;;4969330;28;20943;-74
2022/11/24 03:09:27;;;;;;;21.60;16.60;;;2.90;99.90;;;;;;4969140;28;20704;-71
2022/11/24 03:11:54;;;;;;;22.70;16.60;;;2.90;99.90;;;;;;4969957;28;20297;-71
2022/11/24 03:14:21;;;;;;;19.53;16.10;;;2.90;99.90;;;;;;4969609;28;20301;-71
2022/11/24 03:16:48;;;;;;;23.27;16.60;;;2.80;99.90;;;;;;4969332;28;20612;-75
2022/11/24 03:19:17;;;;;;;21.57;16.57;;;2.80;99.90;;;;;;4969461;28;20214;-74
2022/11/24 03:21:44;;;;;;;25.50;15.57;;;2.90;99.90;;;;;;4968760;28;20334;-74
2022/11/24 03:24:10;;;;;;;25.47;16.97;;;2.80;99.90;;;;;;4969188;28;20293;-75
2022/11/24 03:26:37;;;;;;;21.60;16.53;;;2.80;99.90;;;;;;4969138;28;20293;-72
2022/11/24 03:29:04;;;;;;;21.93;15.80;;;2.80;99.90;;;;;;4969177;28;20309;-73
2022/11/24 03:31:31;;;;;;;20.20;15.30;;;2.80;99.90;;;;;;4966646;28;20785;-73
2022/11/24 03:33:58;;;;;;;19.53;15.87;;;2.80;99.90;;;;;;4953801;28;20223;-73
2022/11/24 03:36:27;;;;;;;21.50;16.30;;;2.80;99.90;;;;;;4966577;28;20209;-73
2022/11/24 03:38:53;;;;;;;19.20;15.97;;;2.80;99.90;;;;;;4967076;28;20302;-74
2022/11/24 03:41:20;;;;;;;20.57;15.83;;;2.80;99.90;;;;;;4966560;28;20587;-73
2022/11/24 03:43:47;;;;;;;19.67;15.63;;;2.70;99.90;;;;;;4967091;28;20297;-73
2022/11/24 03:46:14;;;;;;;25.87;16.00;;;2.80;99.90;;;;;;4967117;28;20317;-74
2022/11/24 03:48:41;;;;;;;22.20;16.67;;;2.70;99.90;;;;;;4967271;28;20653;-72
2022/11/24 03:51:09;;;;;;;21.90;16.43;;;2.70;99.90;;;;;;4966704;28;20737;-74
2022/11/24 03:53:37;;;;;;;20.60;15.80;;;2.70;99.90;;;;;;4966869;28;20203;-73
2022/11/24 03:56:04;;;;;;;22.67;16.63;;;2.70;99.90;;;;;;4966553;28;20750;-73
2022/11/24 03:58:31;;;;;;;22.97;16.47;;;2.70;99.90;;;;;;4966719;28;20290;-75
2022/11/24 04:00:58;;;;;;;21.93;16.60;;;2.70;99.90;;;;;;4966929;28;20306;-74
2022/11/24 04:03:26;;;;;;;23.00;15.97;;;2.70;99.90;;;;;;4968336;28;20293;-73
2022/11/24 04:05:53;;;;;;;23.77;16.37;;;2.70;99.90;;;;;;4968573;28;20321;-75
2022/11/24 04:08:20;;;;;;;22.67;16.23;;;2.70;99.90;;;;;;4968825;28;20316;-74
2022/11/24 04:10:52;;;;;;;21.13;15.97;;;2.70;99.90;;;;;;4968206;28;20894;-74
2022/11/24 04:13:20;;;;;;;22.40;16.47;;;2.70;99.90;;;;;;4968338;28;20734;-74
2022/11/24 04:15:47;;;;;;;25.27;17.87;;;2.70;99.90;;;;;;4968411;28;20269;-74
2022/11/24 04:18:14;;;;;;;23.63;16.87;;;2.70;99.90;;;;;;4968712;28;20298;-75
2022/11/24 04:20:41;;;;;;;21.63;17.00;;;2.70;99.90;;;;;;4968651;28;20246;-74
2022/11/24 04:23:09;;;;;;;21.33;16.00;;;2.70;99.90;;;;;;4968473;28;20238;-74
2022/11/24 04:25:37;;;;;;;23.70;17.07;;;2.70;99.90;;;;;;4972767;28;20202;-75
2022/11/24 04:28:05;;;;;;;23.80;16.93;;;2.70;99.90;;;;;;4988053;28;20218;-73
2022/11/24 04:30:32;;;;;;;28.30;17.00;;;2.70;99.90;;;;;;4987550;28;20336;-74
2022/11/24 04:32:59;;;;;;;22.07;16.53;;;2.70;99.90;;;;;;4991042;28;20301;-75
2022/11/24 04:35:26;;;;;;;22.53;16.63;;;2.70;99.90;;;;;;4972003;28;20238;-74
2022/11/24 04:37:53;;;;;;;21.20;15.83;;;2.70;99.90;;;;;;4972393;28;20294;-74
2022/11/24 04:40:20;;;;;;;23.20;16.30;;;2.70;99.90;;;;;;4972232;28;20293;-73
2022/11/24 04:42:55;;;;;;;26.73;17.30;;;2.60;99.90;;;;;;4972113;28;20301;-74
2022/11/24 04:45:24;;;;;;;23.23;17.53;;;2.60;99.90;;;;;;4972261;28;20278;-74
2022/11/24 04:47:51;;;;;;;22.23;17.80;;;2.60;99.90;;;;;;4972225;28;20210;-75
2022/11/24 04:50:18;;;;;;;23.77;17.37;;;2.70;99.90;;;;;;4971714;28;20230;-74
2022/11/24 04:52:45;;;;;;;22.00;17.10;;;2.60;99.90;;;;;;4972434;28;20265;-75
2022/11/24 04:55:12;;;;;;;22.77;17.13;;;2.60;99.90;;;;;;4972120;28;20214;-74
2022/11/24 04:57:40;;;;;;;22.77;16.67;;;2.60;99.90;;;;;;4972084;28;20616;-75
2022/11/24 05:00:08;;;;;;;23.17;17.10;;;2.70;99.90;;;;;;4971878;28;20296;-74
2022/11/24 05:02:36;;;;;;;23.00;16.63;;;2.60;99.90;;;;;;4972092;28;21117;-75
2022/11/24 05:05:03;;;;;;;25.70;16.87;;;2.60;99.90;;;;;;4971831;28;20297;-74
2022/11/24 05:07:30;;;;;;;22.40;16.60;;;2.60;99.90;;;;;;4971371;28;20334;-73
2022/11/24 05:12:42;;;;;;;21.90;16.17;;;2.60;99.90;;;;;;4971843;28;20246;-74
2022/11/24 05:15:10;;;;;;;24.43;16.57;;;2.60;99.90;;;;;;4971910;28;20301;-74
2022/11/24 05:17:39;;;;;;;21.13;16.07;;;2.60;99.90;;;;;;4971628;28;20246;-74
2022/11/24 05:20:07;;;;;;;22.07;16.60;;;2.60;99.90;;;;;;4971726;28;20270;-73
2022/11/24 05:22:34;;;;;;;23.17;16.33;;;2.60;99.90;;;;;;4971519;28;20211;-73
2022/11/24 05:25:01;;;;;;;21.43;16.10;;;2.60;99.90;;;;;;4971478;28;20301;-74
2022/11/24 05:27:28;;;;;;;23.20;16.30;;;2.60;99.90;;;;;;4971393;28;20215;-74
2022/11/24 05:29:55;;;;;;;19.97;15.50;;;2.60;99.90;;;;;;4971208;28;20313;-73
2022/11/24 05:32:22;;;;;;;21.00;15.83;;;2.50;99.90;;;;;;4971052;28;20211;-74
2022/11/24 05:34:52;;;;;;;19.90;15.27;;;2.50;99.90;;;;;;4971495;28;20221;-74
2022/11/24 05:37:19;;;;;;;20.93;15.57;;;2.50;99.90;;;;;;4970846;28;20216;-75
2022/11/24 05:39:46;;;;;;;21.93;15.87;;;2.50;99.90;;;;;;4971063;28;20980;-73
2022/11/24 05:44:58;;;;;;;22.13;15.07;;;2.50;99.90;;;;;;4970319;28;20213;-73
2022/11/24 05:47:25;;;;;;;26.30;15.20;;;2.50;99.90;;;;;;4970982;28;20246;-73
2022/11/24 05:49:53;;;;;;;21.40;16.07;;;2.50;99.90;;;;;;4971310;28;20309;-74
2022/11/24 05:52:20;;;;;;;22.13;16.23;;;2.50;99.90;;;;;;4970927;28;20211;-74
2022/11/24 05:54:47;;;;;;;20.17;15.77;;;2.50;99.90;;;;;;4970610;28;20293;-73
2022/11/24 05:57:14;;;;;;;20.60;15.07;;;2.50;99.90;;;;;;4971003;28;20304;-75
2022/11/24 05:59:41;;;;;;;21.20;15.40;;;2.50;99.90;;;;;;4970013;28;20289;-74
2022/11/24 06:02:08;;;;;;;19.87;15.27;;;2.50;99.90;;;;;;4955328;28;20635;-73
2022/11/24 06:04:35;;;;;;;20.67;15.53;;;2.50;99.90;;;;;;4951403;29;20650;-75
2022/11/24 06:07:06;;;;;;;23.93;16.67;;;2.50;99.90;;;;;;4951224;29;20326;-73
2022/11/24 06:09:35;;;;;;;21.10;14.87;;;2.40;99.90;;;;;;4970282;28;20258;-74
2022/11/24 06:12:02;;;;;;;20.13;15.33;;;2.40;99.90;;;;;;4969989;28;20328;-73
2022/11/24 06:14:29;;;;;;;18.97;14.27;;;2.40;99.90;;;;;;4970198;28;20253;-73
2022/11/24 06:16:56;;;;;;;19.57;14.73;;;2.40;99.90;;;;;;4970814;28;20298;-73
2022/11/24 06:19:23;;;;;;;19.80;14.50;;;2.40;99.90;;;;;;4970481;28;20302;-73
2022/11/24 06:21:50;;;;;;;19.57;15.10;;;2.40;99.90;;;;;;4970501;28;20293;-74
2022/11/24 06:24:18;;;;;;;17.53;14.33;;;2.40;99.90;;;;;;4970480;28;20678;-75
2022/11/24 06:26:45;;;;;;;17.50;13.57;;;2.50;99.90;;;;;;4970375;28;20333;-73
2022/11/24 06:29:12;;;;;;;21.37;14.17;;;2.40;99.90;;;;;;4970471;28;20301;-74
2022/11/24 06:31:39;;;;;;;16.83;13.57;;;2.40;99.90;;;;;;4970007;28;20238;-75
2022/11/24 06:34:06;;;;;;;19.60;13.77;;;2.40;99.90;;;;;;4970782;28;20237;-75
2022/11/24 06:36:33;;;;;;;18.53;13.60;;;2.40;99.90;;;;;;4970116;28;20207;-73
2022/11/24 06:39:02;;;;;;;17.57;13.80;;;2.40;99.90;;;;;;4970208;28;20843;-74
2022/11/24 06:41:30;;;;;;;18.13;13.90;;;2.40;99.90;;;;;;4969992;28;20207;-75
2022/11/24 06:43:57;;;;;;;19.67;14.80;;;2.40;99.90;;;;;;4970304;28;20313;-74
2022/11/24 06:46:24;;;;;;;18.87;14.23;;;2.40;99.90;;;;;;4970029;28;20635;-75
2022/11/24 06:48:52;;;;;;;16.57;13.23;;;2.40;99.90;;;;;;4970323;28;20263;-74
2022/11/24 06:51:19;;;;;;;16.73;13.30;;;2.40;99.90;;;;;;4969618;28;20234;-74
2022/11/24 06:53:46;;;;;;;17.17;14.10;;;2.50;99.90;;;;;;4970121;28;20215;-73
2022/11/24 06:56:15;;;;;;;16.93;13.60;;;2.50;99.90;;;;;;4969044;28;20468;-73
2022/11/24 06:58:44;;;;;;;19.03;13.97;;;2.50;99.90;;;;;;4970228;28;20302;-74
2022/11/24 07:01:14;;;;;;;18.43;13.37;;;2.50;99.90;;;;;;4986950;28;20237;-74
2022/11/24 07:03:41;;;;;;;17.27;13.90;;;2.50;99.90;;;;;;4989298;28;20257;-73
2022/11/24 07:06:08;;;;;;;17.37;13.87;;;2.50;99.90;;;;;;4988938;28;20738;-74
2022/11/24 07:08:35;;;;;;;17.40;14.07;;;2.40;99.90;;;;;;4977511;28;20355;-76
2022/11/24 07:11:05;;;;;;;18.03;13.40;;;2.40;99.90;;;;;;4969660;28;20330;-75
2022/11/24 07:13:34;;;;;;;18.90;14.43;;;2.40;99.90;;;;;;4969081;28;20219;-75
2022/11/24 07:16:11;;;;;;;17.27;12.97;;;2.40;99.90;;;;;;4969300;28;20302;-73
2022/11/24 07:18:37;;;;;;;16.70;13.03;;;2.40;99.90;;;;;;4969582;28;20290;-73
2022/11/24 07:21:04;;;;;;;16.87;12.70;;;2.40;99.90;;;;;;4969480;28;20305;-74
2022/11/24 07:23:31;;;;;;;17.60;13.73;;;2.40;99.90;;;;;;4968842;28;20246;-75
2022/11/24 07:25:58;;;;;;;18.73;14.60;;;2.40;99.90;;;;;;4969368;28;20234;-74
2022/11/24 07:28:25;;;;;;;19.23;13.93;;;2.40;99.90;;;;;;4969047;28;20232;-74
2022/11/24 07:30:52;;;;;;;17.67;13.50;;;2.40;99.90;;;;;;4968960;28;20326;-73
2022/11/24 07:33:23;;;;;;;19.33;14.63;;;2.40;99.90;;;;;;4969072;28;20211;-72
2022/11/24 07:35:50;;;;;;;20.00;14.70;;;2.50;99.90;;;;;;4969004;28;20250;-75
2022/11/24 07:38:17;;;;;;;19.60;14.17;;;2.50;99.90;;;;;;4968994;28;20236;-74
2022/11/24 07:40:44;;;;;;;18.23;13.87;;;2.50;99.90;;;;;;4969021;28;20207;-74
2022/11/24 07:43:11;;;;;;;17.03;12.97;;;2.50;99.90;;;;;;4969304;28;20306;-73
2022/11/24 07:45:38;;;;;;;18.83;13.57;;;2.60;99.90;;;;;;4968826;28;20207;-73
2022/11/24 07:48:05;;;;;;;17.77;13.63;;;2.60;99.90;;;;;;4968895;28;20301;-73
2022/11/24 07:50:33;;;;;;;17.63;13.20;;;2.60;99.90;;;;;;4968310;28;20293;-74
2022/11/24 07:53:02;;;;;;;18.53;14.23;;;2.60;99.90;;;;;;4968823;28;20237;-73
2022/11/24 07:55:28;;;;;;;17.47;13.80;;;2.60;99.90;;;;;;4968635;28;20207;-74
2022/11/24 07:57:59;;;;;;;16.63;13.40;;;2.60;99.90;;;;;;4968857;28;20221;-73
2022/11/24 08:00:27;;;;;;;19.00;13.60;;;2.60;99.90;;;;;;4968402;28;20638;-73
2022/11/24 08:02:54;;;;;;;16.47;12.73;;;2.60;99.90;;;;;;4968522;28;20225;-75
2022/11/24 08:05:21;;;;;;;15.33;13.27;;;2.60;99.90;;;;;;4968273;28;20305;-74
2022/11/24 08:07:49;;;;;;;19.17;14.20;;;2.70;99.90;;;;;;4968237;28;20301;-75
2022/11/24 08:10:17;;;;;;;17.43;13.87;;;2.70;99.90;;;;;;4968255;28;20309;-73
2022/11/24 08:12:43;;;;;;;17.70;13.70;;;2.70;99.90;;;;;;4968613;28;20581;-75
2022/11/24 08:15:11;;;;;;;14.93;12.47;;;2.80;99.90;;;;;;4968294;28;20316;-74
2022/11/24 08:17:38;;;;;;;20.57;13.83;;;2.70;99.90;;;;;;4968180;28;20286;-75
2022/11/24 08:20:06;;;;;;;18.37;14.20;;;2.80;99.90;;;;;;4968435;28;20217;-73
2022/11/24 08:22:33;;;;;;;17.53;13.70;;;2.80;99.90;;;;;;4968217;28;20234;-74
2022/11/24 08:25:01;;;;;;;17.53;13.83;;;2.80;99.90;;;;;;4968787;28;20297;-72
2022/11/24 08:27:29;;;;;;;17.33;13.83;;;2.80;99.90;;;;;;4968401;28;20241;-74
2022/11/24 08:29:56;;;;;;;16.67;13.37;;;2.90;99.90;;;;;;4968634;28;20297;-73
2022/11/24 08:32:23;;;;;;;19.40;13.27;;;2.90;99.90;;;;;;4968310;28;20330;-73
2022/11/24 08:34:50;;;;;;;20.27;14.30;;;3.00;99.90;;;;;;4968331;28;20657;-74
2022/11/24 08:37:17;;;;;;;16.73;13.87;;;3.00;99.90;;;;;;4968153;28;20264;-75
2022/11/24 08:39:44;;;;;;;17.43;13.70;;;3.00;99.90;;;;;;4968508;28;20214;-76
2022/11/24 08:42:12;;;;;;;16.80;13.10;;;3.00;99.90;;;;;;4968484;28;20215;-73
2022/11/24 08:44:39;;;;;;;17.03;13.20;;;3.00;99.90;;;;;;4967875;28;20207;-74
2022/11/24 08:47:06;;;;;;;16.33;12.40;;;3.00;99.90;;;;;;4968106;28;20297;-74
2022/11/24 08:49:32;;;;;;;16.93;13.23;;;3.00;99.90;;;;;;4968402;28;20317;-75
2022/11/24 08:51:59;;;;;;;16.73;13.63;;;3.10;99.90;;;;;;4968048;28;20230;-73
2022/11/24 08:54:26;;;;;;;16.37;13.23;;;3.10;99.90;;;;;;4968233;28;20310;-73
2022/11/24 08:56:53;;;;;;;17.73;13.87;;;3.10;99.90;;;;;;4967817;28;20674;-74
2022/11/24 08:59:21;;;;;;;18.00;14.00;;;3.10;99.90;;;;;;4970544;28;20682;-73
2022/11/24 09:01:48;;;;;;;17.37;13.13;;;3.10;99.90;;;;;;4974986;28;20295;-75
2022/11/24 09:04:15;;;;;;;15.90;13.17;;;3.10;99.90;;;;;;4968186;28;20238;-75
2022/11/24 09:06:42;;;;;;;14.80;13.00;;;3.10;99.90;;;;;;4967591;28;20239;-73
2022/11/24 09:09:11;;;;;;;16.20;13.17;;;3.20;99.90;;;;;;4968323;28;20249;-73
2022/11/24 09:11:38;;;;;;;15.27;12.77;;;3.20;99.90;;;;;;4968049;28;20321;-74
2022/11/24 09:14:05;;;;;;;16.30;12.77;;;3.20;99.90;;;;;;4967783;28;20709;-74
2022/11/24 09:16:33;;;;;;;19.67;13.03;;;3.20;99.90;;;;;;4967269;28;20828;-73
2022/11/24 09:19:01;;;;;;;15.13;13.27;;;3.20;99.90;;;;;;4969518;28;20217;-72
2022/11/24 09:21:30;;;;;;;17.73;13.27;;;3.20;99.90;;;;;;4971730;28;20242;-73
2022/11/24 09:23:58;;;;;;;17.13;13.30;;;3.20;99.90;;;;;;4971674;28;20203;-73
2022/11/24 09:26:27;;;;;;;16.43;13.77;;;3.30;99.90;;;;;;4971448;28;20211;-73
2022/11/24 09:28:56;;;;;;;15.67;13.07;;;3.30;99.90;;;;;;4971764;28;20301;-73
2022/11/24 09:31:25;;;;;;;15.73;12.60;;;3.30;99.90;;;;;;4970898;28;20231;-74
2022/11/24 09:33:54;;;;;;;16.07;12.93;;;3.30;99.90;;;;;;4971477;28;20851;-74
2022/11/24 09:36:21;;;;;;;15.40;12.67;;;3.40;99.90;;;;;;4970931;28;20298;-74
2022/11/24 09:38:48;;;;;;;15.70;13.30;;;3.40;99.90;;;;;;4971208;28;20785;-75
2022/11/24 09:41:29;;;;;;;17.03;13.17;;;3.40;99.90;;;;;;4971355;28;20294;-72
2022/11/24 09:44:05;;;;;;;16.80;13.10;;;3.50;99.90;;;;;;4971032;28;20611;-74
2022/11/24 09:46:39;;;;;;;17.77;12.50;;;3.50;99.90;;;;;;4970919;28;20265;-73
2022/11/24 09:49:14;;;;;;;17.10;12.70;;;3.50;99.90;;;;;;4971229;28;20321;-74
2022/11/24 09:51:44;;;;;;;15.70;12.97;;;3.50;99.90;;;;;;4970637;28;20228;-73
2022/11/24 09:54:15;;;;;;;15.40;12.50;;;3.60;99.90;;;;;;4970871;28;20285;-73
2022/11/24 09:56:43;;;;;;;15.03;12.77;;;3.70;99.90;;;;;;4970750;28;20289;-73
2022/11/24 09:59:15;;;;;;;17.30;13.30;;;3.70;99.90;;;;;;4971994;28;20266;-74
2022/11/24 10:01:44;;;;;;;15.33;13.07;;;3.80;99.90;;;;;;4983908;28;20250;-73
2022/11/24 10:04:18;;;;;;;17.27;13.90;;;3.90;99.90;;;;;;4971017;28;20273;-73
2022/11/24 10:06:50;;;;;;;16.40;13.33;;;3.90;99.90;;;;;;4970604;28;20819;-73
2022/11/24 10:09:30;;;;;;;15.37;12.70;;;3.90;99.90;;;;;;4970726;28;20215;-73
2022/11/24 10:12:04;;;;;;;16.47;13.50;;;3.90;99.90;;;;;;4970460;28;20226;-73
2022/11/24 10:15:04;;;;;;;17.97;14.10;;;3.90;99.90;;;;;;4951221;28;20310;-72
2022/11/24 10:17:46;;;;;;;16.10;13.23;;;3.90;99.90;;;;;;4950992;28;20206;-73
2022/11/24 10:20:22;;;;;;;16.83;13.87;;;3.90;99.90;;;;;;4958306;28;20239;-73
2022/11/24 10:22:57;;;;;;;17.83;13.87;;;3.90;99.90;;;;;;4969991;28;20653;-74
2022/11/24 10:25:26;;;;;;;19.03;14.50;;;3.90;99.90;;;;;;4970309;28;20529;-73
2022/11/24 10:27:58;;;;;;;19.57;13.97;;;4.00;99.90;;;;;;4970318;28;20242;-73
2022/11/24 10:30:26;;;;;;;19.40;13.77;;;4.00;99.90;;;;;;4969962;28;20206;-74
2022/11/24 10:32:57;;;;;;;17.43;14.03;;;4.00;99.90;;;;;;4970053;28;20727;-74
2022/11/24 10:35:30;;;;;;;16.67;14.03;;;4.10;99.90;;;;;;4970217;28;20759;-74
2022/11/24 10:38:11;;;;;;;19.70;14.57;;;4.10;99.90;;;;;;4970229;28;20241;-73
2022/11/24 10:40:42;;;;;;;21.03;14.50;;;4.10;99.90;;;;;;4970307;28;20313;-73
2022/11/24 10:43:11;;;;;;;19.50;14.63;;;4.10;99.90;;;;;;4970219;28;20275;-73
2022/11/24 10:45:38;;;;;;;19.30;13.87;;;4.10;99.90;;;;;;4969817;28;20211;-73
2022/11/24 10:48:12;;;;;;;19.53;14.17;;;4.10;99.90;;;;;;4969967;28;20319;-73
2022/11/24 10:50:42;;;;;;;17.90;14.37;;;4.10;99.90;;;;;;4970076;28;20287;-74
2022/11/24 10:53:17;;;;;;;18.73;14.47;;;4.10;99.90;;;;;;4969570;28;20230;-73
2022/11/24 10:56:02;;;;;;;20.30;14.47;;;4.10;99.90;;;;;;4969724;28;20226;-74
2022/11/24 10:58:31;;;;;;;20.77;14.57;;;4.10;99.90;;;;;;4969807;28;20679;-74
2022/11/24 11:01:00;;;;;;;23.17;15.60;;;4.10;99.90;;;;;;4985508;28;20259;-73
2022/11/24 11:03:31;;;;;;;18.53;14.80;;;4.10;99.90;;;;;;4988932;28;20844;-73
2022/11/24 11:06:04;;;;;;;18.77;16.03;;;4.10;99.90;;;;;;4988893;28;20328;-73
2022/11/24 11:08:32;;;;;;;19.20;15.13;;;4.10;99.90;;;;;;4975074;28;20207;-73
2022/11/24 11:11:20;;;;;;;21.97;15.77;;;4.10;99.90;;;;;;4969591;28;20733;-74
2022/11/24 11:13:54;;;;;;;20.80;15.97;;;4.10;99.90;;;;;;4950276;28;20691;-73
2022/11/24 11:16:29;;;;;;;21.33;15.57;;;4.10;99.90;;;;;;4955880;28;20415;-73
2022/11/24 11:18:56;;;;;;;19.93;15.53;;;4.20;99.90;;;;;;4969967;28;20211;-74
2022/11/24 11:21:33;;;;;;;20.30;16.07;;;4.30;99.90;;;;;;4969485;28;20214;-74
2022/11/24 11:24:02;;;;;;;21.13;16.10;;;4.30;99.90;;;;;;4969818;28;20194;-74
2022/11/24 11:26:35;;;;;;;18.53;15.17;;;4.30;99.90;;;;;;4969249;28;20242;-74
2022/11/24 11:29:15;;;;;;;19.27;15.80;;;4.30;99.90;;;;;;4969739;28;20202;-73
2022/11/24 11:31:55;;;;;;;18.57;15.33;;;4.40;99.90;;;;;;4969128;28;20214;-73
2022/11/24 11:34:23;;;;;;;19.07;14.67;;;4.40;99.90;;;;;;4969525;28;20222;-74
2022/11/24 11:36:53;;;;;;;17.23;14.80;;;4.40;99.90;;;;;;4968732;28;20309;-74
2022/11/24 11:39:30;;;;;;;20.80;15.63;;;4.40;99.90;;;;;;4969060;28;20689;-74
2022/11/24 11:42:07;;;;;;;19.27;14.67;;;4.40;99.90;;;;;;4968196;28;20253;-74
2022/11/24 11:44:38;;;;;;;19.63;15.67;;;4.30;99.90;;;;;;4968887;28;20289;-73
2022/11/24 11:47:22;;;;;;;20.53;15.90;;;4.30;99.90;;;;;;4969372;28;20199;-73
2022/11/24 11:49:49;;;;;;;20.50;15.27;;;4.30;99.90;;;;;;4968998;28;20231;-74
2022/11/24 11:52:41;;;;;;;21.00;15.80;;;4.30;99.90;;;;;;4969110;28;20333;-73
2022/11/24 11:55:26;;;;;;;21.10;16.17;;;4.20;99.90;;;;;;4969125;28;20211;-74
2022/11/24 11:58:02;;;;;;;21.90;16.13;;;4.30;99.90;;;;;;4968810;28;20198;-73
2022/11/24 12:00:31;;;;;;;19.20;16.00;;;4.30;99.90;;;;;;4980644;28;20227;-73
2022/11/24 12:03:27;;;;;;;21.33;15.43;;;4.20;99.90;;;;;;4988496;28;20297;-74
2022/11/24 12:06:00;;;;;;;22.07;15.93;;;4.20;99.90;;;;;;4959930;28;20286;-74
2022/11/24 12:08:40;;;;;;;25.00;15.33;;;4.20;99.90;;;;;;4968374;28;20297;-74
2022/11/24 12:11:14;;;;;;;20.33;16.80;;;4.20;99.90;;;;;;4968475;28;20289;-74
2022/11/24 12:14:12;;;;;;;20.90;16.23;;;4.30;99.90;;;;;;4968433;28;20314;-74
2022/11/24 12:16:47;;;;;;;20.73;16.50;;;4.30;99.90;;;;;;4968349;28;20205;-74
2022/11/24 12:19:25;;;;;;;21.87;16.07;;;4.30;99.90;;;;;;4968530;28;20198;-74
2022/11/24 12:22:02;;;;;;;21.33;16.60;;;4.30;99.90;;;;;;4968784;28;20199;-74
2022/11/24 12:24:37;;;;;;;22.40;17.07;;;4.30;99.90;;;;;;4968585;28;20321;-73
2022/11/24 12:27:06;;;;;;;21.17;16.47;;;4.40;99.90;;;;;;4968418;28;20283;-74
2022/11/24 12:29:52;;;;;;;21.67;17.57;;;4.40;99.90;;;;;;4967834;28;20242;-73
2022/11/24 12:32:37;;;;;;;20.47;16.73;;;4.40;99.90;;;;;;4968328;28;20261;-74
2022/11/24 12:35:15;;;;;;;20.43;16.10;;;4.40;99.90;;;;;;4968542;28;20276;-74
2022/11/24 12:37:54;;;;;;;19.60;15.97;;;4.40;99.90;;;;;;4968551;28;20245;-74
2022/11/24 12:40:35;;;;;;;22.57;16.87;;;4.50;99.90;;;;;;4968455;28;20194;-74
2022/11/24 12:43:11;;;;;;;22.60;16.57;;;4.60;99.90;;;;;;4968411;28;20213;-73
2022/11/24 12:45:46;;;;;;;21.93;16.33;;;4.50;99.90;;;;;;4967790;28;20333;-74
2022/11/24 12:48:30;;;;;;;21.60;16.93;;;4.50;99.90;;;;;;4968193;28;20234;-74
2022/11/24 12:50:58;;;;;;;17.37;15.43;;;4.60;99.90;;;;;;4968501;28;20209;-74
2022/11/24 12:53:29;;;;;;;21.43;17.33;;;4.60;99.90;;;;;;4970511;28;20245;-73